createdAt,value
2023-02-24T00:00:32.014Z,17.26
2023-02-24T00:03:34.582Z,17.25
2023-02-24T00:06:41.561Z,17.23
2023-02-24T00:09:44.605Z,17.20
2023-02-24T00:12:47.860Z,17.19
2023-02-24T00:16:02.719Z,17.17
2023-02-24T00:19:07.630Z,17.15
2023-02-24T00:22:10.304Z,17.13
2023-02-24T00:25:14.555Z,17.12
2023-02-24T00:28:16.995Z,17.10
2023-02-24T00:31:24.236Z,17.08
2023-02-24T00:34:27.634Z,17.08
2023-02-24T00:37:30.561Z,17.05
2023-02-24T00:40:37.157Z,17.05
2023-02-24T00:43:39.983Z,17.02
2023-02-24T00:46:46.943Z,17.02
2023-02-24T00:49:50.227Z,16.99
2023-02-24T00:52:52.665Z,16.98
2023-02-24T00:56:00.532Z,16.97
2023-02-24T00:59:03.744Z,16.96
2023-02-24T01:02:08.034Z,16.90
2023-02-24T01:05:11.995Z,16.91
2023-02-24T01:08:18.083Z,16.90
2023-02-24T01:11:40.896Z,16.89
2023-02-24T01:14:45.890Z,16.89
2023-02-24T01:17:50.057Z,16.88
2023-02-24T01:20:53.736Z,16.83
2023-02-24T01:23:56.184Z,16.84
2023-02-24T01:26:58.897Z,16.83
2023-02-24T01:30:01.412Z,16.81
2023-02-24T01:33:05.583Z,16.79
2023-02-24T01:36:12.334Z,16.79
2023-02-24T01:39:14.959Z,16.75
2023-02-24T01:42:20.123Z,16.76
2023-02-24T01:45:29.479Z,16.74
2023-02-24T01:48:33.403Z,16.73
2023-02-24T01:51:39.894Z,16.72
2023-02-24T01:54:47.041Z,16.70
2023-02-24T01:57:52.423Z,16.69
2023-02-24T02:00:55.262Z,16.66
2023-02-24T02:04:06.342Z,16.65
2023-02-24T02:07:11.124Z,16.64
2023-02-24T02:10:14.481Z,16.64
2023-02-24T02:13:21.399Z,16.62
2023-02-24T02:16:45.094Z,16.62
2023-02-24T02:20:16.317Z,16.58
2023-02-24T02:23:48.190Z,16.58
2023-02-24T02:27:29.361Z,16.55
2023-02-24T02:31:12.661Z,16.53
2023-02-24T02:34:25.488Z,16.53
2023-02-24T02:37:33.889Z,16.50
2023-02-24T02:40:41.848Z,16.50
2023-02-24T02:43:52.501Z,16.50
2023-02-24T02:47:01.098Z,16.48
2023-02-24T02:50:11.478Z,16.47
2023-02-24T02:53:20.680Z,16.46
2023-02-24T02:56:30.632Z,16.45
2023-02-24T02:59:37.114Z,16.44
2023-02-24T03:02:42.484Z,16.42
2023-02-24T03:05:52.978Z,16.42
2023-02-24T03:09:00.212Z,16.38
2023-02-24T03:12:08.051Z,16.38
2023-02-24T03:15:12.140Z,16.36
2023-02-24T03:18:20.797Z,16.36
2023-02-24T03:21:30.854Z,16.36
2023-02-24T03:24:36.486Z,16.34
2023-02-24T03:27:46.495Z,16.32
2023-02-24T03:30:58.891Z,16.33
2023-02-24T03:34:06.965Z,16.31
2023-02-24T03:37:11.202Z,16.29
2023-02-24T03:40:15.762Z,16.28
2023-02-24T03:43:25.839Z,16.27
2023-02-24T03:46:29.875Z,16.27
2023-02-24T03:49:32.345Z,16.25
2023-02-24T03:52:47.236Z,16.24
2023-02-24T03:56:00.546Z,16.21
2023-02-24T03:59:15.117Z,16.22
2023-02-24T04:02:23.465Z,16.36
2023-02-24T04:05:29.889Z,16.60
2023-02-24T04:08:42.005Z,16.78
2023-02-24T04:11:49.154Z,16.90
2023-02-24T04:14:56.753Z,17.05
2023-02-24T04:18:03.072Z,17.22
2023-02-24T04:21:06.889Z,17.34
2023-02-24T04:24:16.094Z,17.46
2023-02-24T04:27:19.590Z,17.59
2023-02-24T04:30:25.207Z,17.71
2023-02-24T04:33:27.760Z,17.82
2023-02-24T04:36:30.184Z,17.94
2023-02-24T04:39:33.973Z,18.04
2023-02-24T04:42:36.356Z,18.13
2023-02-24T04:45:40.388Z,18.22
2023-02-24T04:48:42.830Z,18.31
2023-02-24T04:51:46.186Z,18.39
2023-02-24T04:54:49.933Z,18.45
2023-02-24T04:57:54.342Z,18.49
2023-02-24T05:00:57.280Z,18.51
2023-02-24T05:04:00.188Z,18.52
2023-02-24T05:07:03.076Z,18.52
2023-02-24T05:10:07.790Z,18.51
2023-02-24T05:13:12.397Z,18.49
2023-02-24T05:16:17.497Z,18.45
2023-02-24T05:19:38.713Z,18.43
2023-02-24T05:22:41.161Z,18.39
2023-02-24T05:25:45.464Z,18.36
2023-02-24T05:28:52.425Z,18.31
2023-02-24T05:31:55.310Z,18.26
2023-02-24T05:34:57.798Z,18.23
2023-02-24T05:38:00.191Z,18.21
2023-02-24T05:41:08.059Z,18.17
2023-02-24T05:44:13.486Z,18.17
2023-02-24T05:47:19.588Z,18.17
2023-02-24T05:50:26.350Z,18.21
2023-02-24T05:53:28.771Z,18.26
2023-02-24T05:56:34.668Z,18.27
2023-02-24T05:59:37.080Z,18.31
2023-02-24T06:02:43.097Z,18.39
2023-02-24T06:05:53.784Z,18.46
2023-02-24T06:08:57.776Z,18.51
2023-02-24T06:12:02.515Z,18.54
2023-02-24T06:15:07.636Z,18.55
2023-02-24T06:18:11.591Z,18.56
2023-02-24T06:21:14.212Z,18.55
2023-02-24T06:24:18.383Z,18.53
2023-02-24T06:27:24.503Z,18.53
2023-02-24T06:30:27.246Z,18.50
2023-02-24T06:33:31.205Z,18.49
2023-02-24T06:36:33.660Z,18.45
2023-02-24T06:39:36.892Z,18.42
2023-02-24T06:42:40.797Z,18.40
2023-02-24T06:45:43.241Z,18.38
2023-02-24T06:48:48.346Z,18.38
2023-02-24T06:51:52.706Z,18.36
2023-02-24T06:55:04.943Z,18.36
2023-02-24T06:58:20.663Z,18.36
2023-02-24T07:01:25.554Z,18.33
2023-02-24T07:04:29.112Z,18.36
2023-02-24T07:07:31.737Z,18.39
2023-02-24T07:10:34.237Z,18.50
2023-02-24T07:13:38.025Z,18.64
2023-02-24T07:16:45.245Z,18.76
2023-02-24T07:19:47.874Z,18.88
2023-02-24T07:22:50.373Z,18.97
2023-02-24T07:25:53.366Z,19.07
2023-02-24T07:28:58.023Z,19.19
2023-02-24T07:32:03.338Z,19.27
2023-02-24T07:35:06.727Z,19.36
2023-02-24T07:38:09.507Z,19.39
2023-02-24T07:41:15.299Z,19.47
2023-02-24T07:44:20.584Z,19.56
2023-02-24T07:47:23.043Z,19.65
2023-02-24T07:50:28.238Z,19.71
2023-02-24T07:53:30.733Z,19.75
2023-02-24T07:56:33.266Z,19.86
2023-02-24T07:59:38.883Z,19.95
2023-02-24T08:02:41.560Z,19.71
2023-02-24T08:05:44.532Z,19.79
2023-02-24T08:08:58.882Z,19.88
2023-02-24T08:12:01.414Z,20.06
2023-02-24T08:15:16.934Z,20.16
2023-02-24T08:18:20.226Z,20.15
2023-02-24T08:21:23.649Z,20.23
2023-02-24T08:24:29.987Z,20.32
2023-02-24T08:27:36.107Z,20.36
2023-02-24T08:30:45.451Z,20.45
2023-02-24T08:33:48.235Z,20.53
2023-02-24T08:36:55.853Z,20.57
2023-02-24T08:39:58.428Z,20.60
2023-02-24T08:43:16.007Z,20.66
2023-02-24T08:46:26.133Z,20.72
2023-02-24T08:49:29.391Z,20.78
2023-02-24T08:52:32.407Z,20.72
2023-02-24T08:55:39.799Z,20.80
2023-02-24T08:58:47.273Z,20.90
2023-02-24T09:02:13.143Z,20.99
2023-02-24T09:05:16.893Z,21.06
2023-02-24T09:08:24.050Z,21.14
2023-02-24T09:11:26.460Z,21.19
2023-02-24T09:14:36.671Z,21.26
2023-02-24T09:17:50.998Z,21.35
2023-02-24T09:21:16.156Z,21.33
2023-02-24T09:24:27.086Z,21.35
2023-02-24T09:27:29.620Z,21.41
2023-02-24T09:30:38.640Z,21.46
2023-02-24T09:33:42.913Z,21.47
2023-02-24T09:37:01.374Z,21.49
2023-02-24T09:40:21.400Z,21.55
2023-02-24T09:43:28.264Z,21.61
2023-02-24T09:46:39.273Z,21.65
2023-02-24T09:49:56.258Z,21.71
2023-02-24T09:53:14.055Z,21.72
2023-02-24T09:56:22.647Z,21.75
2023-02-24T09:59:34.606Z,21.81
2023-02-24T10:02:44.825Z,21.83
2023-02-24T10:05:59.469Z,21.86
2023-02-24T10:09:12.361Z,21.88
2023-02-24T10:12:19.974Z,21.88
2023-02-24T10:15:57.017Z,21.92
2023-02-24T10:19:14.976Z,21.96
2023-02-24T10:22:28.914Z,21.98
2023-02-24T10:25:53.699Z,22.03
2023-02-24T10:29:08.903Z,22.07
2023-02-24T10:32:23.753Z,22.07
2023-02-24T10:35:33.671Z,22.10
2023-02-24T10:38:40.760Z,22.10
2023-02-24T10:41:46.843Z,21.96
2023-02-24T10:45:01.997Z,21.74
2023-02-24T10:48:08.643Z,21.84
2023-02-24T10:51:20.149Z,21.94
2023-02-24T10:54:44.888Z,21.99
2023-02-24T10:57:58.928Z,22.02
2023-02-24T11:01:18.305Z,22.03
2023-02-24T11:04:44.410Z,22.03
2023-02-24T11:07:53.833Z,22.05
2023-02-24T11:11:07.036Z,22.05
2023-02-24T11:14:35.301Z,22.09
2023-02-24T11:17:39.194Z,22.12
2023-02-24T11:20:49.372Z,22.16
2023-02-24T11:23:55.598Z,22.21
2023-02-24T11:26:59.395Z,22.23
2023-02-24T11:30:17.855Z,22.25
2023-02-24T11:33:34.975Z,22.31
2023-02-24T11:36:45.419Z,22.37
2023-02-24T11:39:56.557Z,22.35
2023-02-24T11:43:05.157Z,22.33
2023-02-24T11:46:13.449Z,22.34
2023-02-24T11:49:26.983Z,22.39
2023-02-24T11:52:34.704Z,22.38
2023-02-24T11:55:42.521Z,22.39
2023-02-24T11:58:51.579Z,22.43
2023-02-24T12:01:57.722Z,22.39
2023-02-24T12:05:06.574Z,22.50
2023-02-24T12:08:19.086Z,22.57
2023-02-24T12:11:35.304Z,22.64
2023-02-24T12:14:42.756Z,22.70
2023-02-24T12:17:57.924Z,22.59
2023-02-24T12:21:06.795Z,22.57
2023-02-24T12:24:13.724Z,22.59
2023-02-24T12:27:26.333Z,22.61
2023-02-24T12:30:48.808Z,22.64
2023-02-24T12:34:01.937Z,22.62
2023-02-24T12:37:20.905Z,22.58
2023-02-24T12:40:36.280Z,22.54
2023-02-24T12:43:42.729Z,22.48
2023-02-24T12:46:49.640Z,22.45
2023-02-24T12:50:07.835Z,22.41
2023-02-24T12:53:20.752Z,22.34
2023-02-24T12:56:26.203Z,22.29
2023-02-24T12:59:33.465Z,22.23
2023-02-24T13:02:48.340Z,22.13
2023-02-24T13:06:00.041Z,22.10
2023-02-24T13:09:11.232Z,22.06
2023-02-24T13:12:18.323Z,22.02
2023-02-24T13:15:24.134Z,21.93
2023-02-24T13:18:31.886Z,21.89
2023-02-24T13:21:35.083Z,21.83
2023-02-24T13:24:39.547Z,21.81
2023-02-24T13:27:43.965Z,21.80
2023-02-24T13:30:46.664Z,21.74
2023-02-24T13:33:52.622Z,21.70
2023-02-24T13:36:55.152Z,21.71
2023-02-24T13:39:57.604Z,21.67
2023-02-24T13:43:04.655Z,21.71
2023-02-24T13:46:18.392Z,21.74
2023-02-24T13:49:27.616Z,21.79
2023-02-24T13:52:37.883Z,21.80
2023-02-24T13:55:51.568Z,21.87
2023-02-24T13:59:06.403Z,21.95
2023-02-24T14:02:16.360Z,22.06
2023-02-24T14:05:23.348Z,22.07
2023-02-24T14:08:36.598Z,22.11
2023-02-24T14:11:39.046Z,22.13
2023-02-24T14:14:44.201Z,22.16
2023-02-24T14:17:56.990Z,22.20
2023-02-24T14:21:00.980Z,22.24
2023-02-24T14:24:06.176Z,22.29
2023-02-24T14:27:08.811Z,22.32
2023-02-24T14:30:24.365Z,22.36
2023-02-24T14:33:31.572Z,22.36
2023-02-24T14:36:38.962Z,22.42
2023-02-24T14:39:51.025Z,22.40
2023-02-24T14:42:57.065Z,22.41
2023-02-24T14:46:05.019Z,22.42
2023-02-24T14:49:19.780Z,22.45
2023-02-24T14:52:32.395Z,22.48
2023-02-24T14:55:38.230Z,22.50
2023-02-24T14:58:45.486Z,22.52
2023-02-24T15:01:50.379Z,22.56
2023-02-24T15:04:55.469Z,22.60
2023-02-24T15:08:01.896Z,22.63
2023-02-24T15:11:11.521Z,22.66
2023-02-24T15:14:21.962Z,22.19
2023-02-24T15:17:25.275Z,22.31
2023-02-24T15:20:30.749Z,22.43
2023-02-24T15:23:36.671Z,22.42
2023-02-24T15:26:40.120Z,22.38
2023-02-24T15:29:44.329Z,22.34
2023-02-24T15:32:46.941Z,22.25
2023-02-24T15:35:53.799Z,22.20
2023-02-24T15:39:01.473Z,22.13
2023-02-24T15:42:09.488Z,22.01
2023-02-24T15:45:26.214Z,21.95
2023-02-24T15:48:31.093Z,21.88
2023-02-24T15:51:38.153Z,21.81
2023-02-24T15:54:43.316Z,21.70
2023-02-24T15:57:47.135Z,21.63
2023-02-24T16:00:53.264Z,21.54
2023-02-24T16:03:55.860Z,21.44
2023-02-24T16:06:59.018Z,21.35
2023-02-24T16:10:03.713Z,21.30
2023-02-24T16:13:06.322Z,21.22
2023-02-24T16:16:13.194Z,21.14
2023-02-24T16:19:16.072Z,21.05
2023-02-24T16:22:18.470Z,20.91
2023-02-24T16:25:22.671Z,20.88
2023-02-24T16:28:26.377Z,20.82
2023-02-24T16:31:29.513Z,20.70
2023-02-24T16:34:32.110Z,20.63
2023-02-24T16:37:34.571Z,20.58
2023-02-24T16:40:38.606Z,20.54
2023-02-24T16:43:41.876Z,20.47
2023-02-24T16:46:45.240Z,20.40
2023-02-24T16:49:48.040Z,20.34
2023-02-24T16:52:50.561Z,20.28
2023-02-24T16:55:54.286Z,20.21
2023-02-24T16:58:56.737Z,20.16
2023-02-24T17:01:59.835Z,20.09
2023-02-24T17:05:02.421Z,20.04
2023-02-24T17:08:05.934Z,20.00
2023-02-24T17:11:13.286Z,19.95
2023-02-24T17:14:17.741Z,19.89
2023-02-24T17:17:20.792Z,19.84
2023-02-24T17:20:23.404Z,19.77
2023-02-24T17:23:25.974Z,19.72
2023-02-24T17:26:29.819Z,19.69
2023-02-24T17:29:32.264Z,19.64
2023-02-24T17:32:34.754Z,19.60
2023-02-24T17:35:37.271Z,19.57
2023-02-24T17:38:39.699Z,19.52
2023-02-24T17:41:43.632Z,19.48
2023-02-24T17:44:46.328Z,19.43
2023-02-24T17:47:48.735Z,19.39
2023-02-24T17:50:51.936Z,19.34
2023-02-24T17:53:54.928Z,19.30
2023-02-24T17:56:58.566Z,19.20
2023-02-24T18:00:01.339Z,19.23
2023-02-24T18:03:03.870Z,19.21
2023-02-24T18:06:10.894Z,19.19
2023-02-24T18:09:13.342Z,19.15
2023-02-24T18:12:18.597Z,19.14
2023-02-24T18:15:21.189Z,19.09
2023-02-24T18:18:23.761Z,19.04
2023-02-24T18:21:26.888Z,19.03
2023-02-24T18:24:29.294Z,18.96
2023-02-24T18:27:33.045Z,18.95
2023-02-24T18:30:36.535Z,18.93
2023-02-24T18:33:39.246Z,18.91
2023-02-24T18:36:41.890Z,18.88
2023-02-24T18:39:44.302Z,18.85
2023-02-24T18:42:49.426Z,18.84
2023-02-24T18:45:56.961Z,18.78
2023-02-24T18:48:59.450Z,18.77
2023-02-24T18:52:02.467Z,18.74
2023-02-24T18:55:05.380Z,18.73
2023-02-24T18:58:09.160Z,18.71
2023-02-24T19:01:13.467Z,18.70
2023-02-24T19:04:16.459Z,18.67
2023-02-24T19:07:18.964Z,18.67
2023-02-24T19:10:21.591Z,18.65
2023-02-24T19:13:25.599Z,18.64
2023-02-24T19:16:28.523Z,18.64
2023-02-24T19:19:30.980Z,18.63
2023-02-24T19:22:33.777Z,18.61
2023-02-24T19:25:36.480Z,18.58
2023-02-24T19:28:40.234Z,18.58
2023-02-24T19:31:42.891Z,18.54
2023-02-24T19:34:46.038Z,18.53
2023-02-24T19:37:48.465Z,18.47
2023-02-24T19:40:51.134Z,18.48
2023-02-24T19:43:55.385Z,18.49
2023-02-24T19:46:57.799Z,18.45
2023-02-24T19:50:00.207Z,18.43
2023-02-24T19:53:02.608Z,18.40
2023-02-24T19:56:06.000Z,18.40
2023-02-24T19:59:09.753Z,18.38
2023-02-24T20:02:12.151Z,18.35
2023-02-24T20:05:15.441Z,18.33
2023-02-24T20:08:17.826Z,18.32
2023-02-24T20:11:21.119Z,18.30
2023-02-24T20:14:29.070Z,18.30
2023-02-24T20:17:31.762Z,18.30
2023-02-24T20:20:36.301Z,18.28
2023-02-24T20:23:38.947Z,18.25
2023-02-24T20:26:43.138Z,18.24
2023-02-24T20:29:46.932Z,18.22
2023-02-24T20:32:49.395Z,18.21
2023-02-24T20:35:52.842Z,18.19
2023-02-24T20:38:56.625Z,18.17
2023-02-24T20:41:59.040Z,18.17
2023-02-24T20:45:03.193Z,18.15
2023-02-24T20:48:06.608Z,18.11
2023-02-24T20:51:10.278Z,18.09
2023-02-24T20:54:14.263Z,18.08
2023-02-24T20:57:16.664Z,18.05
2023-02-24T21:00:21.252Z,18.04
2023-02-24T21:03:24.350Z,18.02
2023-02-24T21:06:27.513Z,17.96
2023-02-24T21:09:30.242Z,17.97
2023-02-24T21:12:32.629Z,17.99
2023-02-24T21:15:36.605Z,17.97
2023-02-24T21:18:40.031Z,17.96
2023-02-24T21:21:42.474Z,17.94
2023-02-24T21:24:45.100Z,17.94
2023-02-24T21:27:48.368Z,17.92
2023-02-24T21:30:52.732Z,17.92
2023-02-24T21:33:56.204Z,17.91
2023-02-24T21:36:58.845Z,17.89
2023-02-24T21:40:01.343Z,17.89
2023-02-24T21:43:05.735Z,17.86
2023-02-24T21:46:10.123Z,17.88
2023-02-24T21:49:14.240Z,17.87
2023-02-24T21:52:16.737Z,17.85
2023-02-24T21:55:20.082Z,17.86
2023-02-24T21:58:22.529Z,17.85
2023-02-24T22:01:28.682Z,17.85
2023-02-24T22:04:31.100Z,17.85
2023-02-24T22:07:33.538Z,17.84
2023-02-24T22:10:35.953Z,17.83
2023-02-24T22:13:38.661Z,17.80
2023-02-24T22:16:43.065Z,17.83
2023-02-24T22:19:45.470Z,17.83
2023-02-24T22:22:47.916Z,17.84
2023-02-24T22:25:50.297Z,17.84
2023-02-24T22:28:53.907Z,17.86
2023-02-24T22:31:57.740Z,17.88
2023-02-24T22:35:00.221Z,17.90
2023-02-24T22:38:03.071Z,17.90
2023-02-24T22:41:09.053Z,17.90
2023-02-24T22:44:12.189Z,17.89
2023-02-24T22:47:16.799Z,17.85
2023-02-24T22:50:19.220Z,17.87
2023-02-24T22:53:21.609Z,17.87
2023-02-24T22:56:26.298Z,17.88
2023-02-24T22:59:28.878Z,17.87
2023-02-24T23:02:32.612Z,17.87
2023-02-24T23:05:35.046Z,17.86
2023-02-24T23:08:39.409Z,17.86
2023-02-24T23:11:42.448Z,17.86
2023-02-24T23:14:44.868Z,17.86
2023-02-24T23:17:49.209Z,17.85
2023-02-24T23:20:59.447Z,17.86
2023-02-24T23:24:02.632Z,17.84
2023-02-24T23:27:06.028Z,17.80
2023-02-24T23:30:09.741Z,17.80
2023-02-24T23:33:13.779Z,17.79
2023-02-24T23:36:16.793Z,17.78
2023-02-24T23:39:23.641Z,17.77
2023-02-24T23:42:26.201Z,17.75
2023-02-24T23:45:29.284Z,17.76
2023-02-24T23:48:33.007Z,17.71
2023-02-24T23:51:47.721Z,17.72
2023-02-24T23:54:52.577Z,17.69
2023-02-24T23:57:55.062Z,17.72
